sensor_id;sensor_type;location;lat;lon;timestamp;temperature;humidity
2889;DHT22;1453;42.708;23.282;2022-09-16T00:00:15;21.70;99.90
2889;DHT22;1453;42.708;23.282;2022-09-16T00:02:41;21.20;99.90
2889;DHT22;1453;42.708;23.282;2022-09-16T00:05:07;21.50;99.90
2889;DHT22;1453;42.708;23.282;2022-09-16T00:07:33;20.80;99.90
2889;DHT22;1453;42.708;23.282;2022-09-16T00:10:00;20.90;99.90
2889;DHT22;1453;42.708;23.282;2022-09-16T00:12:26;20.90;99.90
2889;DHT22;1453;42.708;23.282;2022-09-16T00:14:52;20.80;99.90
2889;DHT22;1453;42.708;23.282;2022-09-16T00:17:19;21.00;99.90
2889;DHT22;1453;42.708;23.282;2022-09-16T00:19:46;21.20;99.90
2889;DHT22;1453;42.708;23.282;2022-09-16T00:22:12;21.40;99.90
2889;DHT22;1453;42.708;23.282;2022-09-16T00:24:38;21.20;99.90
2889;DHT22;1453;42.708;23.282;2022-09-16T00:27:04;21.00;99.90
2889;DHT22;1453;42.708;23.282;2022-09-16T00:29:29;21.00;99.90
2889;DHT22;1453;42.708;23.282;2022-09-16T00:31:55;21.00;99.90
2889;DHT22;1453;42.708;23.282;2022-09-16T00:34:21;21.10;99.90
2889;DHT22;1453;42.708;23.282;2022-09-16T00:36:47;20.70;99.90
2889;DHT22;1453;42.708;23.282;2022-09-16T00:39:13;21.00;99.90
2889;DHT22;1453;42.708;23.282;2022-09-16T00:41:39;21.00;99.90
2889;DHT22;1453;42.708;23.282;2022-09-16T00:44:48;21.10;99.90
2889;DHT22;1453;42.708;23.282;2022-09-16T00:47:11;21.20;99.90
2889;DHT22;1453;42.708;23.282;2022-09-16T00:49:38;21.00;99.90
2889;DHT22;1453;42.708;23.282;2022-09-16T00:52:05;21.10;99.90
2889;DHT22;1453;42.708;23.282;2022-09-16T00:54:33;21.30;99.90
2889;DHT22;1453;42.708;23.282;2022-09-16T00:57:01;21.30;99.90
2889;DHT22;1453;42.708;23.282;2022-09-16T00:59:31;21.00;99.90
2889;DHT22;1453;42.708;23.282;2022-09-16T01:02:04;20.90;99.90
2889;DHT22;1453;42.708;23.282;2022-09-16T01:04:45;20.70;99.90
2889;DHT22;1453;42.708;23.282;2022-09-16T01:07:17;20.40;99.90
2889;DHT22;1453;42.708;23.282;2022-09-16T01:09:48;20.70;99.90
2889;DHT22;1453;42.708;23.282;2022-09-16T01:12:14;20.40;99.90
2889;DHT22;1453;42.708;23.282;2022-09-16T01:14:40;20.50;99.90
2889;DHT22;1453;42.708;23.282;2022-09-16T01:37:57;21.10;99.90
2889;DHT22;1453;42.708;23.282;2022-09-16T01:41:03;21.20;99.90
2889;DHT22;1453;42.708;23.282;2022-09-16T01:43:49;21.40;99.90
2889;DHT22;1453;42.708;23.282;2022-09-16T01:49:01;20.90;99.90
2889;DHT22;1453;42.708;23.282;2022-09-16T01:55:00;20.80;99.90
2889;DHT22;1453;42.708;23.282;2022-09-16T02:00:14;21.00;99.90
2889;DHT22;1453;42.708;23.282;2022-09-16T02:03:09;21.10;99.90
2889;DHT22;1453;42.708;23.282;2022-09-16T02:05:57;21.10;99.90
2889;DHT22;1453;42.708;23.282;2022-09-16T02:11:03;21.10;99.90
2889;DHT22;1453;42.708;23.282;2022-09-16T02:16:22;21.40;99.90
2889;DHT22;1453;42.708;23.282;2022-09-16T02:18:57;21.30;99.90
2889;DHT22;1453;42.708;23.282;2022-09-16T02:21:31;21.20;99.90
2889;DHT22;1453;42.708;23.282;2022-09-16T02:24:01;21.20;99.90
2889;DHT22;1453;42.708;23.282;2022-09-16T02:26:33;21.20;99.90
2889;DHT22;1453;42.708;23.282;2022-09-16T02:29:12;21.20;99.90
2889;DHT22;1453;42.708;23.282;2022-09-16T02:31:46;21.20;99.90
2889;DHT22;1453;42.708;23.282;2022-09-16T02:34:19;21.30;99.90
2889;DHT22;1453;42.708;23.282;2022-09-16T02:36:52;21.20;99.90
2889;DHT22;1453;42.708;23.282;2022-09-16T02:39:27;20.40;99.90
2889;DHT22;1453;42.708;23.282;2022-09-16T02:41:54;20.40;99.90
2889;DHT22;1453;42.708;23.282;2022-09-16T02:44:24;20.20;99.90
2889;DHT22;1453;42.708;23.282;2022-09-16T02:50:04;19.60;99.90
2889;DHT22;1453;42.708;23.282;2022-09-16T02:52:59;20.00;99.90
2889;DHT22;1453;42.708;23.282;2022-09-16T02:58:09;19.90;99.90
2889;DHT22;1453;42.708;23.282;2022-09-16T03:00:42;19.90;99.90
2889;DHT22;1453;42.708;23.282;2022-09-16T03:03:11;19.80;99.90
2889;DHT22;1453;42.708;23.282;2022-09-16T03:08:26;20.00;99.90
2889;DHT22;1453;42.708;23.282;2022-09-16T03:10:52;19.60;99.90
2889;DHT22;1453;42.708;23.282;2022-09-16T03:14:19;19.50;99.90
2889;DHT22;1453;42.708;23.282;2022-09-16T03:22:16;20.40;99.90
2889;DHT22;1453;42.708;23.282;2022-09-16T03:31:58;20.90;99.90
2889;DHT22;1453;42.708;23.282;2022-09-16T03:37:12;21.30;99.90
2889;DHT22;1453;42.708;23.282;2022-09-16T03:39:40;21.40;99.90
2889;DHT22;1453;42.708;23.282;2022-09-16T03:42:07;21.40;99.90
2889;DHT22;1453;42.708;23.282;2022-09-16T03:44:37;21.40;99.90
2889;DHT22;1453;42.708;23.282;2022-09-16T03:47:07;21.50;99.90
2889;DHT22;1453;42.708;23.282;2022-09-16T03:49:35;21.60;99.90
2889;DHT22;1453;42.708;23.282;2022-09-16T03:52:02;21.70;99.90
2889;DHT22;1453;42.708;23.282;2022-09-16T03:54:30;21.70;99.90
2889;DHT22;1453;42.708;23.282;2022-09-16T03:56:57;21.70;99.90
2889;DHT22;1453;42.708;23.282;2022-09-16T03:59:23;21.10;99.90
2889;DHT22;1453;42.708;23.282;2022-09-16T04:01:48;20.80;99.90
2889;DHT22;1453;42.708;23.282;2022-09-16T04:04:14;20.60;99.90
2889;DHT22;1453;42.708;23.282;2022-09-16T04:06:40;20.40;99.90
2889;DHT22;1453;42.708;23.282;2022-09-16T04:09:06;20.30;99.90
2889;DHT22;1453;42.708;23.282;2022-09-16T04:11:36;20.50;99.90
2889;DHT22;1453;42.708;23.282;2022-09-16T04:14:04;20.30;99.90
2889;DHT22;1453;42.708;23.282;2022-09-16T04:16:30;20.30;99.90
2889;DHT22;1453;42.708;23.282;2022-09-16T04:18:56;20.20;99.90
2889;DHT22;1453;42.708;23.282;2022-09-16T04:21:22;19.90;99.90
2889;DHT22;1453;42.708;23.282;2022-09-16T04:23:48;19.60;99.90
2889;DHT22;1453;42.708;23.282;2022-09-16T04:26:15;19.50;99.90
2889;DHT22;1453;42.708;23.282;2022-09-16T04:28:41;19.40;99.90
2889;DHT22;1453;42.708;23.282;2022-09-16T04:31:10;19.60;99.90
2889;DHT22;1453;42.708;23.282;2022-09-16T04:33:38;19.60;99.90
2889;DHT22;1453;42.708;23.282;2022-09-16T04:36:12;19.50;99.90
2889;DHT22;1453;42.708;23.282;2022-09-16T04:38:44;19.70;99.90
2889;DHT22;1453;42.708;23.282;2022-09-16T04:41:17;20.10;99.90
2889;DHT22;1453;42.708;23.282;2022-09-16T04:43:45;20.30;99.90
2889;DHT22;1453;42.708;23.282;2022-09-16T04:46:11;20.50;99.90
2889;DHT22;1453;42.708;23.282;2022-09-16T04:48:38;20.70;99.90
2889;DHT22;1453;42.708;23.282;2022-09-16T04:51:08;20.90;99.90
2889;DHT22;1453;42.708;23.282;2022-09-16T04:53:38;21.10;99.90
2889;DHT22;1453;42.708;23.282;2022-09-16T04:56:06;21.30;99.90
2889;DHT22;1453;42.708;23.282;2022-09-16T04:58:49;21.30;99.90
2889;DHT22;1453;42.708;23.282;2022-09-16T05:01:17;21.30;99.90
2889;DHT22;1453;42.708;23.282;2022-09-16T05:03:50;21.50;99.90
2889;DHT22;1453;42.708;23.282;2022-09-16T05:06:24;21.60;99.90
2889;DHT22;1453;42.708;23.282;2022-09-16T05:08:55;21.70;99.90
2889;DHT22;1453;42.708;23.282;2022-09-16T05:11:23;21.40;99.90
2889;DHT22;1453;42.708;23.282;2022-09-16T05:13:51;21.50;99.90
2889;DHT22;1453;42.708;23.282;2022-09-16T05:16:21;21.60;99.90
2889;DHT22;1453;42.708;23.282;2022-09-16T05:18:48;21.60;99.90
2889;DHT22;1453;42.708;23.282;2022-09-16T05:21:17;21.90;99.90
2889;DHT22;1453;42.708;23.282;2022-09-16T05:23:45;21.90;99.90
2889;DHT22;1453;42.708;23.282;2022-09-16T05:26:31;22.20;99.90
2889;DHT22;1453;42.708;23.282;2022-09-16T05:29:00;22.20;99.90
2889;DHT22;1453;42.708;23.282;2022-09-16T05:31:32;21.80;99.90
2889;DHT22;1453;42.708;23.282;2022-09-16T05:34:19;21.30;99.90
2889;DHT22;1453;42.708;23.282;2022-09-16T05:36:48;21.20;99.90
2889;DHT22;1453;42.708;23.282;2022-09-16T05:39:16;21.10;99.90
2889;DHT22;1453;42.708;23.282;2022-09-16T05:41:46;21.30;99.90
2889;DHT22;1453;42.708;23.282;2022-09-16T05:44:13;21.60;99.90
2889;DHT22;1453;42.708;23.282;2022-09-16T05:46:39;22.20;99.90
2889;DHT22;1453;42.708;23.282;2022-09-16T05:49:06;22.70;99.90
2889;DHT22;1453;42.708;23.282;2022-09-16T05:51:33;23.10;99.90
2889;DHT22;1453;42.708;23.282;2022-09-16T05:53:59;23.50;99.90
2889;DHT22;1453;42.708;23.282;2022-09-16T05:56:26;23.60;99.90
2889;DHT22;1453;42.708;23.282;2022-09-16T05:58:55;23.50;99.90
2889;DHT22;1453;42.708;23.282;2022-09-16T06:01:28;22.80;99.90
2889;DHT22;1453;42.708;23.282;2022-09-16T06:03:55;22.50;99.90
2889;DHT22;1453;42.708;23.282;2022-09-16T06:06:30;22.60;99.90
2889;DHT22;1453;42.708;23.282;2022-09-16T06:09:07;22.60;99.90
2889;DHT22;1453;42.708;23.282;2022-09-16T06:11:41;22.40;99.90
2889;DHT22;1453;42.708;23.282;2022-09-16T06:14:10;22.40;99.90
2889;DHT22;1453;42.708;23.282;2022-09-16T06:16:36;22.50;99.90
2889;DHT22;1453;42.708;23.282;2022-09-16T06:19:14;22.80;99.90
2889;DHT22;1453;42.708;23.282;2022-09-16T06:21:42;23.00;99.90
2889;DHT22;1453;42.708;23.282;2022-09-16T06:24:09;23.00;99.90
2889;DHT22;1453;42.708;23.282;2022-09-16T06:26:37;23.20;99.90
2889;DHT22;1453;42.708;23.282;2022-09-16T06:29:05;23.80;99.90
2889;DHT22;1453;42.708;23.282;2022-09-16T06:31:32;24.40;99.90
2889;DHT22;1453;42.708;23.282;2022-09-16T06:33:59;24.90;99.60
2889;DHT22;1453;42.708;23.282;2022-09-16T06:36:29;25.70;95.50
2889;DHT22;1453;42.708;23.282;2022-09-16T06:38:57;26.20;93.70
2889;DHT22;1453;42.708;23.282;2022-09-16T06:41:23;26.40;92.90
2889;DHT22;1453;42.708;23.282;2022-09-16T06:43:50;26.30;92.40
2889;DHT22;1453;42.708;23.282;2022-09-16T06:46:22;26.60;92.00
2889;DHT22;1453;42.708;23.282;2022-09-16T06:48:51;26.90;90.30
2889;DHT22;1453;42.708;23.282;2022-09-16T06:51:26;27.00;89.30
2889;DHT22;1453;42.708;23.282;2022-09-16T06:53:59;27.40;88.00
2889;DHT22;1453;42.708;23.282;2022-09-16T06:56:26;28.60;86.60
2889;DHT22;1453;42.708;23.282;2022-09-16T06:58:52;29.10;81.30
2889;DHT22;1453;42.708;23.282;2022-09-16T07:01:25;28.30;80.90
2889;DHT22;1453;42.708;23.282;2022-09-16T07:03:53;28.60;80.40
2889;DHT22;1453;42.708;23.282;2022-09-16T07:06:21;29.80;77.50
2889;DHT22;1453;42.708;23.282;2022-09-16T07:08:48;30.40;75.90
2889;DHT22;1453;42.708;23.282;2022-09-16T07:11:18;30.70;73.50
2889;DHT22;1453;42.708;23.282;2022-09-16T07:13:45;31.10;69.80
2889;DHT22;1453;42.708;23.282;2022-09-16T07:16:18;31.30;70.60
2889;DHT22;1453;42.708;23.282;2022-09-16T07:18:47;30.60;70.90
2889;DHT22;1453;42.708;23.282;2022-09-16T07:21:17;31.40;68.80
2889;DHT22;1453;42.708;23.282;2022-09-16T07:23:45;31.80;67.60
2889;DHT22;1453;42.708;23.282;2022-09-16T07:26:20;31.70;68.30
2889;DHT22;1453;42.708;23.282;2022-09-16T07:28:49;32.40;67.30
2889;DHT22;1453;42.708;23.282;2022-09-16T07:31:19;31.80;63.80
2889;DHT22;1453;42.708;23.282;2022-09-16T07:33:51;30.50;65.00
2889;DHT22;1453;42.708;23.282;2022-09-16T07:36:27;30.80;67.50
2889;DHT22;1453;42.708;23.282;2022-09-16T07:38:56;31.40;64.70
2889;DHT22;1453;42.708;23.282;2022-09-16T07:41:29;31.00;65.50
2889;DHT22;1453;42.708;23.282;2022-09-16T07:43:58;31.40;65.50
2889;DHT22;1453;42.708;23.282;2022-09-16T07:46:28;31.70;65.00
2889;DHT22;1453;42.708;23.282;2022-09-16T07:48:59;32.50;63.80
2889;DHT22;1453;42.708;23.282;2022-09-16T07:51:29;32.30;64.80
2889;DHT22;1453;42.708;23.282;2022-09-16T07:54:06;32.40;62.30
2889;DHT22;1453;42.708;23.282;2022-09-16T07:56:37;32.20;62.20
2889;DHT22;1453;42.708;23.282;2022-09-16T07:59:09;31.70;62.10
2889;DHT22;1453;42.708;23.282;2022-09-16T08:01:42;32.00;63.00
2889;DHT22;1453;42.708;23.282;2022-09-16T08:04:10;32.00;60.80
2889;DHT22;1453;42.708;23.282;2022-09-16T08:06:38;31.30;61.50
2889;DHT22;1453;42.708;23.282;2022-09-16T08:09:05;31.50;62.70
2889;DHT22;1453;42.708;23.282;2022-09-16T08:11:32;30.10;64.60
2889;DHT22;1453;42.708;23.282;2022-09-16T08:14:00;30.40;64.60
2889;DHT22;1453;42.708;23.282;2022-09-16T08:16:27;31.50;64.00
2889;DHT22;1453;42.708;23.282;2022-09-16T08:18:55;31.70;63.90
2889;DHT22;1453;42.708;23.282;2022-09-16T08:21:25;32.30;61.80
2889;DHT22;1453;42.708;23.282;2022-09-16T08:23:52;32.00;61.10
2889;DHT22;1453;42.708;23.282;2022-09-16T08:26:20;32.30;60.80
2889;DHT22;1453;42.708;23.282;2022-09-16T08:28:47;31.90;62.40
2889;DHT22;1453;42.708;23.282;2022-09-16T08:31:15;32.50;62.60
2889;DHT22;1453;42.708;23.282;2022-09-16T08:33:42;32.40;62.20
2889;DHT22;1453;42.708;23.282;2022-09-16T08:36:16;32.80;62.00
2889;DHT22;1453;42.708;23.282;2022-09-16T08:38:45;32.90;61.50
2889;DHT22;1453;42.708;23.282;2022-09-16T08:47:00;32.20;61.30
2889;DHT22;1453;42.708;23.282;2022-09-16T08:49:42;32.30;60.90
2889;DHT22;1453;42.708;23.282;2022-09-16T08:52:32;32.30;60.70
2889;DHT22;1453;42.708;23.282;2022-09-16T08:55:11;30.90;62.10
2889;DHT22;1453;42.708;23.282;2022-09-16T08:58:08;30.00;64.40
2889;DHT22;1453;42.708;23.282;2022-09-16T09:00:32;30.10;64.20
2889;DHT22;1453;42.708;23.282;2022-09-16T09:07:00;30.20;64.60
2889;DHT22;1453;42.708;23.282;2022-09-16T09:12:04;29.60;66.70
2889;DHT22;1453;42.708;23.282;2022-09-16T09:27:08;29.70;67.80
2889;DHT22;1453;42.708;23.282;2022-09-16T09:39:06;29.70;67.40
2889;DHT22;1453;42.708;23.282;2022-09-16T09:41:44;29.30;68.20
2889;DHT22;1453;42.708;23.282;2022-09-16T09:44:35;29.30;69.50
2889;DHT22;1453;42.708;23.282;2022-09-16T09:47:07;29.30;68.40
2889;DHT22;1453;42.708;23.282;2022-09-16T09:49:45;29.20;68.60
2889;DHT22;1453;42.708;23.282;2022-09-16T09:54:48;28.30;71.30
2889;DHT22;1453;42.708;23.282;2022-09-16T10:00:13;27.80;73.40
2889;DHT22;1453;42.708;23.282;2022-09-16T10:02:42;27.60;74.80
2889;DHT22;1453;42.708;23.282;2022-09-16T10:05:28;27.10;77.30
2889;DHT22;1453;42.708;23.282;2022-09-16T10:07:57;26.70;80.10
2889;DHT22;1453;42.708;23.282;2022-09-16T10:10:28;26.20;83.20
2889;DHT22;1453;42.708;23.282;2022-09-16T10:13:11;25.90;86.40
2889;DHT22;1453;42.708;23.282;2022-09-16T10:15:38;25.50;90.50
2889;DHT22;1453;42.708;23.282;2022-09-16T10:21:04;25.10;93.10
2889;DHT22;1453;42.708;23.282;2022-09-16T10:23:34;24.70;96.00
2889;DHT22;1453;42.708;23.282;2022-09-16T10:28:56;23.70;99.90
2889;DHT22;1453;42.708;23.282;2022-09-16T10:31:25;22.80;99.90
2889;DHT22;1453;42.708;23.282;2022-09-16T10:33:54;22.20;99.90
2889;DHT22;1453;42.708;23.282;2022-09-16T10:36:23;21.70;99.90
2889;DHT22;1453;42.708;23.282;2022-09-16T10:39:00;21.50;99.90
2889;DHT22;1453;42.708;23.282;2022-09-16T10:41:40;21.30;99.90
2889;DHT22;1453;42.708;23.282;2022-09-16T10:44:27;21.10;99.90
2889;DHT22;1453;42.708;23.282;2022-09-16T10:47:01;20.90;99.90
2889;DHT22;1453;42.708;23.282;2022-09-16T10:49:38;20.70;99.90
2889;DHT22;1453;42.708;23.282;2022-09-16T10:52:29;20.30;99.90
2889;DHT22;1453;42.708;23.282;2022-09-16T10:54:56;20.10;99.90
2889;DHT22;1453;42.708;23.282;2022-09-16T10:57:37;19.70;99.90
2889;DHT22;1453;42.708;23.282;2022-09-16T11:00:19;19.70;99.90
2889;DHT22;1453;42.708;23.282;2022-09-16T11:14:19;19.70;99.90
2889;DHT22;1453;42.708;23.282;2022-09-16T11:17:19;20.10;99.90
2889;DHT22;1453;42.708;23.282;2022-09-16T11:23:05;21.40;99.90
2889;DHT22;1453;42.708;23.282;2022-09-16T11:26:04;21.60;99.90
2889;DHT22;1453;42.708;23.282;2022-09-16T11:37:41;22.70;99.90
2889;DHT22;1453;42.708;23.282;2022-09-16T11:42:58;23.20;99.90
2889;DHT22;1453;42.708;23.282;2022-09-16T11:51:30;25.80;99.90
2889;DHT22;1453;42.708;23.282;2022-09-16T11:57:28;26.60;99.90
2889;DHT22;1453;42.708;23.282;2022-09-16T12:00:05;26.20;99.90
2889;DHT22;1453;42.708;23.282;2022-09-16T12:05:55;27.00;99.90
2889;DHT22;1453;42.708;23.282;2022-09-16T12:09:04;27.20;99.90
2889;DHT22;1453;42.708;23.282;2022-09-16T12:11:42;27.40;99.90
2889;DHT22;1453;42.708;23.282;2022-09-16T12:14:29;27.20;99.90
2889;DHT22;1453;42.708;23.282;2022-09-16T12:22:28;25.50;99.90
2889;DHT22;1453;42.708;23.282;2022-09-16T12:25:14;25.40;99.90
2889;DHT22;1453;42.708;23.282;2022-09-16T12:30:47;25.30;99.90
2889;DHT22;1453;42.708;23.282;2022-09-16T12:33:30;25.00;99.90
2889;DHT22;1453;42.708;23.282;2022-09-16T12:36:14;24.60;99.90
2889;DHT22;1453;42.708;23.282;2022-09-16T12:38:41;24.40;99.90
2889;DHT22;1453;42.708;23.282;2022-09-16T12:41:35;24.40;99.90
2889;DHT22;1453;42.708;23.282;2022-09-16T12:48:06;24.40;99.90
2889;DHT22;1453;42.708;23.282;2022-09-16T12:57:14;23.60;99.90
2889;DHT22;1453;42.708;23.282;2022-09-16T13:02:59;23.20;99.90
2889;DHT22;1453;42.708;23.282;2022-09-16T13:05:33;23.10;99.90
2889;DHT22;1453;42.708;23.282;2022-09-16T13:08:17;23.00;99.90
2889;DHT22;1453;42.708;23.282;2022-09-16T13:11:03;22.40;99.90
2889;DHT22;1453;42.708;23.282;2022-09-16T13:13:36;22.40;99.90
2889;DHT22;1453;42.708;23.282;2022-09-16T13:16:07;22.50;99.90
2889;DHT22;1453;42.708;23.282;2022-09-16T13:19:12;22.40;99.90
2889;DHT22;1453;42.708;23.282;2022-09-16T13:21:39;22.60;99.90
2889;DHT22;1453;42.708;23.282;2022-09-16T13:24:32;22.80;99.90
2889;DHT22;1453;42.708;23.282;2022-09-16T13:27:01;22.80;99.90
2889;DHT22;1453;42.708;23.282;2022-09-16T13:32:43;22.40;99.90
2889;DHT22;1453;42.708;23.282;2022-09-16T13:35:23;22.30;99.90
2889;DHT22;1453;42.708;23.282;2022-09-16T13:37:57;22.40;99.90
2889;DHT22;1453;42.708;23.282;2022-09-16T13:40:29;22.30;99.90
2889;DHT22;1453;42.708;23.282;2022-09-16T13:45:39;23.00;99.90
2889;DHT22;1453;42.708;23.282;2022-09-16T13:50:51;23.40;99.90
2889;DHT22;1453;42.708;23.282;2022-09-16T13:53:32;23.30;99.90
2889;DHT22;1453;42.708;23.282;2022-09-16T13:59:44;23.20;99.90
2889;DHT22;1453;42.708;23.282;2022-09-16T14:02:35;23.40;99.90
2889;DHT22;1453;42.708;23.282;2022-09-16T14:05:43;23.00;99.90
2889;DHT22;1453;42.708;23.282;2022-09-16T14:14:10;22.60;99.90
2889;DHT22;1453;42.708;23.282;2022-09-16T14:16:32;22.60;99.90
2889;DHT22;1453;42.708;23.282;2022-09-16T14:19:05;22.50;99.90
2889;DHT22;1453;42.708;23.282;2022-09-16T14:21:31;22.40;99.90
2889;DHT22;1453;42.708;23.282;2022-09-16T14:24:16;22.40;99.90
2889;DHT22;1453;42.708;23.282;2022-09-16T14:26:54;22.60;99.90
2889;DHT22;1453;42.708;23.282;2022-09-16T14:29:23;22.80;99.90
2889;DHT22;1453;42.708;23.282;2022-09-16T14:31:53;23.00;99.90
2889;DHT22;1453;42.708;23.282;2022-09-16T14:34:40;22.90;99.90
2889;DHT22;1453;42.708;23.282;2022-09-16T14:37:06;23.00;99.90
2889;DHT22;1453;42.708;23.282;2022-09-16T14:39:32;23.20;99.90
2889;DHT22;1453;42.708;23.282;2022-09-16T14:42:15;23.00;99.90
2889;DHT22;1453;42.708;23.282;2022-09-16T14:44:46;23.00;99.90
2889;DHT22;1453;42.708;23.282;2022-09-16T14:47:26;22.70;99.90
2889;DHT22;1453;42.708;23.282;2022-09-16T14:50:15;22.50;99.90
2889;DHT22;1453;42.708;23.282;2022-09-16T14:53:23;22.40;99.90
2889;DHT22;1453;42.708;23.282;2022-09-16T14:55:54;22.30;99.90
2889;DHT22;1453;42.708;23.282;2022-09-16T14:58:22;22.50;99.90
2889;DHT22;1453;42.708;23.282;2022-09-16T15:00:59;22.60;99.90
2889;DHT22;1453;42.708;23.282;2022-09-16T15:03:41;22.40;99.90
2889;DHT22;1453;42.708;23.282;2022-09-16T15:06:21;21.70;99.90
2889;DHT22;1453;42.708;23.282;2022-09-16T15:08:56;21.30;99.90
2889;DHT22;1453;42.708;23.282;2022-09-16T15:11:29;21.40;99.90
2889;DHT22;1453;42.708;23.282;2022-09-16T15:13:58;21.40;99.90
2889;DHT22;1453;42.708;23.282;2022-09-16T15:16:25;21.60;99.90
2889;DHT22;1453;42.708;23.282;2022-09-16T15:18:59;21.90;99.90
2889;DHT22;1453;42.708;23.282;2022-09-16T15:21:29;22.10;99.90
2889;DHT22;1453;42.708;23.282;2022-09-16T15:24:01;21.70;99.90
2889;DHT22;1453;42.708;23.282;2022-09-16T15:26:49;21.00;99.90
2889;DHT22;1453;42.708;23.282;2022-09-16T15:31:47;21.00;99.90
2889;DHT22;1453;42.708;23.282;2022-09-16T15:36:51;21.50;99.90
2889;DHT22;1453;42.708;23.282;2022-09-16T15:39:24;21.80;99.90
2889;DHT22;1453;42.708;23.282;2022-09-16T15:47:33;21.90;99.90
2889;DHT22;1453;42.708;23.282;2022-09-16T15:50:13;21.80;99.90
2889;DHT22;1453;42.708;23.282;2022-09-16T15:52:55;22.00;99.90
2889;DHT22;1453;42.708;23.282;2022-09-16T15:56:00;21.90;99.90
2889;DHT22;1453;42.708;23.282;2022-09-16T15:58:40;22.10;99.90
2889;DHT22;1453;42.708;23.282;2022-09-16T16:01:42;21.90;99.90
2889;DHT22;1453;42.708;23.282;2022-09-16T16:04:12;21.60;99.90
2889;DHT22;1453;42.708;23.282;2022-09-16T16:07:00;21.10;99.90
2889;DHT22;1453;42.708;23.282;2022-09-16T16:11:54;20.60;99.90
2889;DHT22;1453;42.708;23.282;2022-09-16T16:14:21;20.50;99.90
2889;DHT22;1453;42.708;23.282;2022-09-16T16:16:53;20.30;99.90
2889;DHT22;1453;42.708;23.282;2022-09-16T16:19:22;20.20;99.90
2889;DHT22;1453;42.708;23.282;2022-09-16T16:21:49;20.10;99.90
2889;DHT22;1453;42.708;23.282;2022-09-16T16:24:17;20.00;99.90
2889;DHT22;1453;42.708;23.282;2022-09-16T16:26:44;20.00;99.90
2889;DHT22;1453;42.708;23.282;2022-09-16T16:29:12;20.00;99.90
2889;DHT22;1453;42.708;23.282;2022-09-16T16:31:39;19.90;99.90
2889;DHT22;1453;42.708;23.282;2022-09-16T16:34:07;19.80;99.90
2889;DHT22;1453;42.708;23.282;2022-09-16T16:36:34;19.90;99.90
2889;DHT22;1453;42.708;23.282;2022-09-16T16:39:01;19.90;99.90
2889;DHT22;1453;42.708;23.282;2022-09-16T16:41:28;19.90;99.90
2889;DHT22;1453;42.708;23.282;2022-09-16T16:43:55;20.00;99.90
2889;DHT22;1453;42.708;23.282;2022-09-16T16:46:22;20.10;99.90
2889;DHT22;1453;42.708;23.282;2022-09-16T16:48:50;20.20;99.90
2889;DHT22;1453;42.708;23.282;2022-09-16T16:51:17;20.20;99.90
2889;DHT22;1453;42.708;23.282;2022-09-16T16:53:46;19.90;99.90
2889;DHT22;1453;42.708;23.282;2022-09-16T16:56:15;20.00;99.90
2889;DHT22;1453;42.708;23.282;2022-09-16T16:58:42;20.00;99.90
2889;DHT22;1453;42.708;23.282;2022-09-16T17:01:18;20.30;99.90
2889;DHT22;1453;42.708;23.282;2022-09-16T17:03:46;20.30;99.90
2889;DHT22;1453;42.708;23.282;2022-09-16T17:06:16;20.20;99.90
2889;DHT22;1453;42.708;23.282;2022-09-16T17:08:43;20.10;99.90
2889;DHT22;1453;42.708;23.282;2022-09-16T17:11:17;20.10;99.90
2889;DHT22;1453;42.708;23.282;2022-09-16T17:13:49;19.90;99.90
2889;DHT22;1453;42.708;23.282;2022-09-16T17:16:19;19.90;99.90
2889;DHT22;1453;42.708;23.282;2022-09-16T17:18:47;19.90;99.90
2889;DHT22;1453;42.708;23.282;2022-09-16T17:21:25;20.00;99.90
2889;DHT22;1453;42.708;23.282;2022-09-16T17:23:55;19.90;99.90
2889;DHT22;1453;42.708;23.282;2022-09-16T17:26:23;20.00;99.90
2889;DHT22;1453;42.708;23.282;2022-09-16T17:28:50;20.00;99.90
2889;DHT22;1453;42.708;23.282;2022-09-16T17:31:21;20.00;99.90
2889;DHT22;1453;42.708;23.282;2022-09-16T17:33:55;19.70;99.90
2889;DHT22;1453;42.708;23.282;2022-09-16T17:36:22;19.90;99.90
2889;DHT22;1453;42.708;23.282;2022-09-16T17:41:23;20.30;99.90
2889;DHT22;1453;42.708;23.282;2022-09-16T17:43:52;20.40;99.90
2889;DHT22;1453;42.708;23.282;2022-09-16T17:46:20;20.40;99.90
2889;DHT22;1453;42.708;23.282;2022-09-16T17:48:48;20.50;99.90
2889;DHT22;1453;42.708;23.282;2022-09-16T17:51:15;20.40;99.90
2889;DHT22;1453;42.708;23.282;2022-09-16T17:53:42;20.10;99.90
2889;DHT22;1453;42.708;23.282;2022-09-16T17:56:10;19.80;99.90
2889;DHT22;1453;42.708;23.282;2022-09-16T17:58:58;19.90;99.90
2889;DHT22;1453;42.708;23.282;2022-09-16T18:01:25;20.10;99.90
2889;DHT22;1453;42.708;23.282;2022-09-16T18:03:54;20.00;99.90
2889;DHT22;1453;42.708;23.282;2022-09-16T18:06:23;19.80;99.90
2889;DHT22;1453;42.708;23.282;2022-09-16T18:08:51;19.80;99.90
2889;DHT22;1453;42.708;23.282;2022-09-16T18:11:18;19.80;99.90
2889;DHT22;1453;42.708;23.282;2022-09-16T18:13:46;19.90;99.90
2889;DHT22;1453;42.708;23.282;2022-09-16T18:16:18;19.80;99.90
2889;DHT22;1453;42.708;23.282;2022-09-16T18:18:48;19.80;99.90
2889;DHT22;1453;42.708;23.282;2022-09-16T18:21:20;19.90;99.90
2889;DHT22;1453;42.708;23.282;2022-09-16T18:23:50;20.00;99.90
2889;DHT22;1453;42.708;23.282;2022-09-16T18:26:17;20.00;99.90
2889;DHT22;1453;42.708;23.282;2022-09-16T18:28:45;19.90;99.90
2889;DHT22;1453;42.708;23.282;2022-09-16T18:31:17;20.00;99.90
2889;DHT22;1453;42.708;23.282;2022-09-16T18:33:45;20.00;99.90
2889;DHT22;1453;42.708;23.282;2022-09-16T18:36:13;20.00;99.90
2889;DHT22;1453;42.708;23.282;2022-09-16T18:38:41;20.00;99.90
2889;DHT22;1453;42.708;23.282;2022-09-16T18:41:12;20.10;99.90
2889;DHT22;1453;42.708;23.282;2022-09-16T18:43:42;20.10;99.90
2889;DHT22;1453;42.708;23.282;2022-09-16T18:46:12;20.10;99.90
2889;DHT22;1453;42.708;23.282;2022-09-16T18:48:46;20.10;99.90
2889;DHT22;1453;42.708;23.282;2022-09-16T18:51:26;20.20;99.90
2889;DHT22;1453;42.708;23.282;2022-09-16T18:53:56;19.90;99.90
2889;DHT22;1453;42.708;23.282;2022-09-16T18:56:27;19.60;99.90
2889;DHT22;1453;42.708;23.282;2022-09-16T18:58:59;19.60;99.90
2889;DHT22;1453;42.708;23.282;2022-09-16T19:01:27;19.80;99.90
2889;DHT22;1453;42.708;23.282;2022-09-16T19:03:56;19.90;99.90
2889;DHT22;1453;42.708;23.282;2022-09-16T19:06:30;19.60;99.90
2889;DHT22;1453;42.708;23.282;2022-09-16T19:09:01;19.40;99.90
2889;DHT22;1453;42.708;23.282;2022-09-16T19:11:30;19.60;99.90
2889;DHT22;1453;42.708;23.282;2022-09-16T19:13:57;19.70;99.90
2889;DHT22;1453;42.708;23.282;2022-09-16T19:16:22;19.90;99.90
2889;DHT22;1453;42.708;23.282;2022-09-16T19:18:50;20.00;99.90
2889;DHT22;1453;42.708;23.282;2022-09-16T19:21:18;20.00;99.90
2889;DHT22;1453;42.708;23.282;2022-09-16T19:23:46;20.10;99.90
2889;DHT22;1453;42.708;23.282;2022-09-16T19:26:18;20.10;99.90
2889;DHT22;1453;42.708;23.282;2022-09-16T19:28:44;20.20;99.90
2889;DHT22;1453;42.708;23.282;2022-09-16T19:31:12;20.30;99.90
2889;DHT22;1453;42.708;23.282;2022-09-16T19:33:40;20.40;99.90
2889;DHT22;1453;42.708;23.282;2022-09-16T19:36:14;20.40;99.90